createdAt,value
2018-05-26T00:00:34.121Z,1020.08
2018-05-26T00:01:34.088Z,1020.08
2018-05-26T00:02:34.079Z,1020.09
2018-05-26T00:03:34.070Z,1020.11
2018-05-26T00:04:34.097Z,1020.11
2018-05-26T00:05:34.145Z,1020.12
2018-05-26T00:06:34.110Z,1020.1
2018-05-26T00:07:34.116Z,1020.13
2018-05-26T00:08:34.093Z,1020.15
2018-05-26T00:09:34.095Z,1020.17
2018-05-26T00:10:34.128Z,1020.16
2018-05-26T00:11:34.099Z,1020.17
2018-05-26T00:12:34.131Z,1020.21
2018-05-26T00:13:34.090Z,1020.16
2018-05-26T00:14:34.098Z,1020.15
2018-05-26T00:15:34.083Z,1020.21
2018-05-26T00:16:34.122Z,1020.23
2018-05-26T00:17:34.158Z,1020.18
2018-05-26T00:18:34.124Z,1020.19
2018-05-26T00:19:34.119Z,1020.22
2018-05-26T00:20:34.090Z,1020.21
2018-05-26T00:21:34.099Z,1020.22
2018-05-26T00:22:34.092Z,1020.25
2018-05-26T00:23:34.105Z,1020.28
2018-05-26T00:24:34.130Z,1020.24
2018-05-26T00:25:34.251Z,1020.23
2018-05-26T00:26:34.110Z,1020.19
2018-05-26T00:27:34.103Z,1020.19
2018-05-26T00:28:34.110Z,1020.21
2018-05-26T00:29:34.114Z,1020.21
2018-05-26T00:30:34.124Z,1020.18
2018-05-26T00:31:34.147Z,1020.22
2018-05-26T00:32:34.106Z,1020.18
2018-05-26T00:33:34.096Z,1020.14
2018-05-26T00:34:34.115Z,1020.15
2018-05-26T00:35:34.103Z,1020.14
2018-05-26T00:36:34.104Z,1020.11
2018-05-26T00:37:34.086Z,1020.12
2018-05-26T00:38:34.092Z,1020.09
2018-05-26T00:39:34.111Z,1020.09
2018-05-26T00:40:34.103Z,1020.1
2018-05-26T00:41:34.126Z,1020.08
2018-05-26T00:42:34.176Z,1020.05
2018-05-26T00:43:34.119Z,1020.1
2018-05-26T00:44:34.280Z,1020.06
2018-05-26T00:45:34.148Z,1020.11
2018-05-26T00:46:34.200Z,1020.09
2018-05-26T00:47:34.102Z,1020.08
2018-05-26T00:48:34.110Z,1020.12
2018-05-26T00:49:34.108Z,1020.06
2018-05-26T00:50:34.112Z,1020.1
2018-05-26T00:51:34.175Z,1020.05
2018-05-26T00:52:34.123Z,1020.07
2018-05-26T00:53:34.118Z,1020.04
2018-05-26T00:54:34.130Z,1020.03
2018-05-26T00:55:34.111Z,1020.04
2018-05-26T00:56:34.115Z,1019.97
2018-05-26T00:57:34.145Z,1020.01
2018-05-26T00:58:34.132Z,1019.99
2018-05-26T00:59:34.183Z,1019.96
2018-05-26T01:00:34.112Z,1019.94
2018-05-26T01:01:34.146Z,1019.96
2018-05-26T01:02:34.173Z,1020.01
2018-05-26T01:03:34.155Z,1019.98
2018-05-26T01:04:34.268Z,1019.95
2018-05-26T01:05:34.160Z,1019.95
2018-05-26T01:06:34.131Z,1019.93
2018-05-26T01:07:34.137Z,1019.91
2018-05-26T01:08:34.184Z,1019.94
2018-05-26T01:09:34.254Z,1019.93
2018-05-26T01:10:34.134Z,1019.96
2018-05-26T01:11:34.139Z,1019.93
2018-05-26T01:12:34.128Z,1019.9
2018-05-26T01:13:34.122Z,1019.9
2018-05-26T01:14:34.129Z,1019.89
2018-05-26T01:15:34.147Z,1019.89
2018-05-26T01:16:34.151Z,1019.9
2018-05-26T01:17:34.559Z,1019.87
2018-05-26T01:18:34.303Z,1019.84
2018-05-26T01:19:34.119Z,1019.87
2018-05-26T01:20:34.125Z,1019.87
2018-05-26T01:21:34.116Z,1019.82
2018-05-26T01:22:34.136Z,1019.79
2018-05-26T01:23:34.128Z,1019.78
2018-05-26T01:24:34.157Z,1019.81
2018-05-26T01:25:34.117Z,1019.79
2018-05-26T01:26:34.144Z,1019.8
2018-05-26T01:27:34.189Z,1019.83
2018-05-26T01:28:34.147Z,1019.85
2018-05-26T01:29:34.131Z,1019.84
2018-05-26T01:30:34.225Z,1019.86
2018-05-26T01:31:34.147Z,1019.89
2018-05-26T01:32:34.157Z,1019.88
2018-05-26T01:33:34.450Z,1019.84
2018-05-26T01:34:34.149Z,1019.88
2018-05-26T01:35:34.134Z,1019.91
2018-05-26T01:36:34.149Z,1019.86
2018-05-26T01:37:34.150Z,1019.88
2018-05-26T01:38:34.146Z,1019.91
2018-05-26T01:39:34.134Z,1019.88
2018-05-26T01:40:34.156Z,1019.91
2018-05-26T01:41:34.164Z,1019.9
2018-05-26T01:42:34.164Z,1019.93
2018-05-26T01:43:34.148Z,1019.91
2018-05-26T01:44:34.188Z,1019.88
2018-05-26T01:45:34.155Z,1019.91
2018-05-26T01:46:34.157Z,1019.92
2018-05-26T01:47:34.180Z,1019.92
2018-05-26T01:48:34.166Z,1019.94
2018-05-26T01:49:34.182Z,1019.92
2018-05-26T01:50:34.185Z,1019.89
2018-05-26T01:51:34.153Z,1019.89
2018-05-26T01:52:34.203Z,1019.92
2018-05-26T01:53:34.133Z,1019.95
2018-05-26T01:54:34.172Z,1019.88
2018-05-26T01:55:34.162Z,1019.87
2018-05-26T01:56:34.131Z,1019.91
2018-05-26T01:57:34.203Z,1019.92
2018-05-26T01:58:34.181Z,1019.91
2018-05-26T01:59:34.166Z,1019.89
2018-05-26T02:00:34.171Z,1019.88
2018-05-26T02:01:34.153Z,1019.9
2018-05-26T02:02:34.154Z,1019.93
2018-05-26T02:03:34.166Z,1019.93
2018-05-26T02:04:34.181Z,1019.94
2018-05-26T02:05:34.212Z,1019.94
2018-05-26T02:06:34.148Z,1019.91
2018-05-26T02:07:34.157Z,1019.95
2018-05-26T02:08:34.168Z,1019.95
2018-05-26T02:09:34.305Z,1019.96
2018-05-26T02:10:34.341Z,1019.93
2018-05-26T02:11:34.167Z,1019.95
2018-05-26T02:12:34.220Z,1019.93
2018-05-26T02:13:34.151Z,1019.94
2018-05-26T02:14:34.166Z,1019.94
2018-05-26T02:15:34.158Z,1019.97
2018-05-26T02:16:34.218Z,1019.96
2018-05-26T02:17:34.221Z,1019.98
2018-05-26T02:18:34.172Z,1019.96
2018-05-26T02:19:34.343Z,1019.97
2018-05-26T02:20:34.231Z,1019.96
2018-05-26T02:21:34.169Z,1019.94
2018-05-26T02:22:34.210Z,1019.96
2018-05-26T02:23:34.156Z,1019.89
2018-05-26T02:24:34.521Z,1019.95
2018-05-26T02:25:34.176Z,1019.93
2018-05-26T02:26:34.433Z,1019.92
2018-05-26T02:27:34.180Z,1019.97
2018-05-26T02:28:34.190Z,1019.98
2018-05-26T02:29:34.191Z,1019.95
2018-05-26T02:30:34.159Z,1019.95
2018-05-26T02:31:34.219Z,1019.96
2018-05-26T02:32:34.187Z,1020.04
2018-05-26T02:33:34.213Z,1020
2018-05-26T02:34:34.347Z,1019.98
2018-05-26T02:35:34.194Z,1019.94
2018-05-26T02:36:34.203Z,1020.03
2018-05-26T02:37:34.223Z,1020.02
2018-05-26T02:38:34.160Z,1020
2018-05-26T02:39:34.169Z,1020.02
2018-05-26T02:40:34.176Z,1019.99
2018-05-26T02:41:34.159Z,1020.03
2018-05-26T02:42:54.454Z,1020.04
2018-05-26T02:43:54.469Z,1020.05
2018-05-26T02:44:54.470Z,1020.01
2018-05-26T02:45:54.477Z,1020.06
2018-05-26T02:46:54.457Z,1020.08
2018-05-26T02:47:54.434Z,1020.04
2018-05-26T02:48:54.445Z,1020.04
2018-05-26T02:49:54.466Z,1020.06
2018-05-26T02:50:54.422Z,1020.07
2018-05-26T02:51:54.454Z,1020.06
2018-05-26T02:52:54.467Z,1020.09
2018-05-26T02:53:54.423Z,1020.09
2018-05-26T02:54:54.479Z,1020.11
2018-05-26T02:55:54.437Z,1020.13
2018-05-26T02:56:54.458Z,1020.18
2018-05-26T02:57:54.414Z,1020.18
2018-05-26T02:58:54.428Z,1020.16
2018-05-26T02:59:54.433Z,1020.15
2018-05-26T03:00:54.461Z,1020.17
2018-05-26T03:01:54.468Z,1020.14
2018-05-26T03:02:54.439Z,1020.14
2018-05-26T03:03:54.451Z,1020.15
2018-05-26T03:04:54.455Z,1020.16
2018-05-26T03:05:54.464Z,1020.18
2018-05-26T03:06:54.456Z,1020.15
2018-05-26T03:07:54.424Z,1020.16
2018-05-26T03:08:54.472Z,1020.19
2018-05-26T03:09:54.479Z,1020.18
2018-05-26T03:10:54.449Z,1020.19
2018-05-26T03:11:54.457Z,1020.19
2018-05-26T03:12:54.761Z,1020.2
2018-05-26T03:13:54.472Z,1020.21
2018-05-26T03:14:54.461Z,1020.21
2018-05-26T03:15:54.428Z,1020.19
2018-05-26T03:16:54.434Z,1020.19
2018-05-26T03:17:54.499Z,1020.23
2018-05-26T03:18:54.453Z,1020.18
2018-05-26T03:19:54.436Z,1020.18
2018-05-26T03:20:54.441Z,1020.22
2018-05-26T03:21:54.421Z,1020.12
2018-05-26T03:22:54.435Z,1020.15
2018-05-26T03:23:54.443Z,1020.18
2018-05-26T03:24:54.651Z,1020.19
2018-05-26T03:25:54.424Z,1020.2
2018-05-26T03:26:54.427Z,1020.19
2018-05-26T03:27:54.412Z,1020.21
2018-05-26T03:28:54.427Z,1020.21
2018-05-26T03:29:54.433Z,1020.23
2018-05-26T03:30:54.418Z,1020.25
2018-05-26T03:31:54.419Z,1020.25
2018-05-26T03:32:54.516Z,1020.25
2018-05-26T03:33:54.431Z,1020.28
2018-05-26T03:34:54.410Z,1020.27
2018-05-26T03:35:54.453Z,1020.3
2018-05-26T03:36:54.400Z,1020.28
2018-05-26T03:37:54.499Z,1020.29
2018-05-26T03:38:54.490Z,1020.26
2018-05-26T03:39:54.414Z,1020.26
2018-05-26T03:40:54.437Z,1020.33
2018-05-26T03:41:54.417Z,1020.32
2018-05-26T03:42:54.432Z,1020.31
2018-05-26T03:43:54.430Z,1020.28
2018-05-26T03:44:54.426Z,1020.31
2018-05-26T03:45:54.460Z,1020.32
2018-05-26T03:46:54.446Z,1020.32
2018-05-26T03:47:54.396Z,1020.34
2018-05-26T03:48:54.439Z,1020.34
2018-05-26T03:49:54.479Z,1020.35
2018-05-26T03:50:54.581Z,1020.33
2018-05-26T03:51:54.449Z,1020.36
2018-05-26T03:52:54.390Z,1020.34
2018-05-26T03:53:54.404Z,1020.32
2018-05-26T03:54:54.788Z,1020.36
2018-05-26T03:55:54.400Z,1020.35
2018-05-26T03:56:54.414Z,1020.38
2018-05-26T03:57:54.421Z,1020.39
2018-05-26T03:58:54.416Z,1020.39
2018-05-26T03:59:54.421Z,1020.39
2018-05-26T04:00:54.413Z,1020.38
2018-05-26T04:01:54.423Z,1020.38
2018-05-26T04:02:54.471Z,1020.44
2018-05-26T04:03:54.392Z,1020.42
2018-05-26T04:04:54.565Z,1020.42
2018-05-26T04:05:54.717Z,1020.5
2018-05-26T04:06:54.396Z,1020.48
2018-05-26T04:07:54.597Z,1020.49
2018-05-26T04:08:54.399Z,1020.52
2018-05-26T04:09:54.409Z,1020.55
2018-05-26T04:10:54.412Z,1020.51
2018-05-26T04:11:54.417Z,1020.54
2018-05-26T04:12:54.415Z,1020.53
2018-05-26T04:13:54.401Z,1020.54
2018-05-26T04:14:54.417Z,1020.55
2018-05-26T04:15:54.423Z,1020.57
2018-05-26T04:16:54.483Z,1020.57
2018-05-26T04:17:54.397Z,1020.59
2018-05-26T04:18:54.387Z,1020.56
2018-05-26T04:19:54.470Z,1020.59
2018-05-26T04:20:54.393Z,1020.61
2018-05-26T04:21:54.772Z,1020.56
2018-05-26T04:22:54.409Z,1020.57
2018-05-26T04:23:54.566Z,1020.59
2018-05-26T04:24:55.755Z,1020.54
2018-05-26T04:25:54.424Z,1020.57
2018-05-26T04:26:54.429Z,1020.55
2018-05-26T04:27:54.423Z,1020.57
2018-05-26T04:28:54.387Z,1020.55
2018-05-26T04:29:55.034Z,1020.59
2018-05-26T04:30:54.543Z,1020.6
2018-05-26T04:31:54.643Z,1020.61
2018-05-26T04:32:54.463Z,1020.65
2018-05-26T04:33:54.457Z,1020.66
2018-05-26T04:34:54.524Z,1020.73
2018-05-26T04:35:54.425Z,1020.74
2018-05-26T04:36:54.468Z,1020.79
2018-05-26T04:37:54.488Z,1020.77
2018-05-26T04:38:54.450Z,1020.8
2018-05-26T04:39:54.416Z,1020.81
2018-05-26T04:40:54.408Z,1020.8
2018-05-26T04:41:54.405Z,1020.81
2018-05-26T04:42:54.420Z,1020.85
2018-05-26T04:43:54.425Z,1020.86
2018-05-26T04:44:55.190Z,1020.85
2018-05-26T04:45:54.494Z,1020.85
2018-05-26T04:46:54.429Z,1020.86
2018-05-26T04:47:54.416Z,1020.85
2018-05-26T04:48:54.425Z,1020.87
2018-05-26T04:49:54.389Z,1020.86
2018-05-26T04:50:54.427Z,1020.89
2018-05-26T04:51:54.441Z,1020.89
2018-05-26T04:52:54.413Z,1020.91
2018-05-26T04:53:54.452Z,1020.96
2018-05-26T04:54:54.456Z,1020.98
2018-05-26T04:55:54.416Z,1020.96
2018-05-26T04:56:54.451Z,1021.02
2018-05-26T04:57:54.410Z,1021.02
2018-05-26T04:58:54.384Z,1021.03
2018-05-26T04:59:54.413Z,1021.03
2018-05-26T05:00:54.412Z,1021.03
2018-05-26T05:01:54.396Z,1021.03
2018-05-26T05:02:54.521Z,1021.02
2018-05-26T05:03:54.424Z,1021.04
2018-05-26T05:04:54.411Z,1021.03
2018-05-26T05:05:54.396Z,1021.01
2018-05-26T05:06:54.418Z,1021.01
2018-05-26T05:07:54.546Z,1021
2018-05-26T05:08:54.451Z,1021.04
2018-05-26T05:09:54.419Z,1021.06
2018-05-26T05:10:54.422Z,1021.02
2018-05-26T05:11:54.373Z,1021.04
2018-05-26T05:12:54.389Z,1021.06
2018-05-26T05:13:54.365Z,1021.05
2018-05-26T05:14:54.396Z,1021.04
2018-05-26T05:15:54.371Z,1021.07
2018-05-26T05:16:54.371Z,1021.04
2018-05-26T05:17:54.380Z,1021.03
2018-05-26T05:18:54.381Z,1021.06
2018-05-26T05:19:54.391Z,1021.05
2018-05-26T05:20:54.393Z,1021.05
2018-05-26T05:21:54.397Z,1021.01
2018-05-26T05:22:54.686Z,1021.05
2018-05-26T05:23:54.374Z,1021.05
2018-05-26T05:24:54.391Z,1021.03
2018-05-26T05:25:54.380Z,1021.04
2018-05-26T05:26:54.368Z,1021.03
2018-05-26T05:27:54.717Z,1021.03
2018-05-26T05:28:54.384Z,1021
2018-05-26T05:29:54.384Z,1021.02
2018-05-26T05:30:54.436Z,1021.02
2018-05-26T05:31:55.177Z,1021.01
2018-05-26T05:32:54.405Z,1021
2018-05-26T05:33:54.579Z,1021.04
2018-05-26T05:34:54.391Z,1021.01
2018-05-26T05:35:54.386Z,1021.04
2018-05-26T05:36:54.391Z,1021.05
2018-05-26T05:37:54.424Z,1021.07
2018-05-26T05:38:54.354Z,1021.02
2018-05-26T05:39:54.417Z,1021.06
2018-05-26T05:40:54.409Z,1021.08
2018-05-26T05:41:54.505Z,1021.06
2018-05-26T05:42:54.392Z,1021.11
2018-05-26T05:43:54.410Z,1021.1
2018-05-26T05:44:54.404Z,1021.16
2018-05-26T05:45:54.359Z,1021.1
2018-05-26T05:46:54.370Z,1021.12
2018-05-26T05:47:54.360Z,1021.15
2018-05-26T05:48:54.369Z,1021.11
2018-05-26T05:49:54.376Z,1021.14
2018-05-26T05:50:54.383Z,1021.14
2018-05-26T05:51:54.358Z,1021.19
2018-05-26T05:52:54.442Z,1021.16
2018-05-26T05:53:54.551Z,1021.23
2018-05-26T05:54:54.488Z,1021.23
2018-05-26T05:55:54.392Z,1021.2
2018-05-26T05:56:54.390Z,1021.26
2018-05-26T05:57:54.445Z,1021.3
2018-05-26T05:58:54.634Z,1021.28
2018-05-26T05:59:54.390Z,1021.26
2018-05-26T06:00:54.380Z,1021.3
2018-05-26T06:01:54.379Z,1021.32
2018-05-26T06:02:54.381Z,1021.34
2018-05-26T06:03:54.380Z,1021.33
2018-05-26T06:04:54.408Z,1021.3
2018-05-26T06:05:54.471Z,1021.39
2018-05-26T06:06:54.615Z,1021.38
2018-05-26T06:07:54.376Z,1021.33
2018-05-26T06:08:54.373Z,1021.31
2018-05-26T06:09:54.533Z,1021.27
2018-05-26T06:10:54.468Z,1021.28
2018-05-26T06:11:54.355Z,1021.26
2018-05-26T06:12:54.371Z,1021.23
2018-05-26T06:13:54.511Z,1021.24
2018-05-26T06:14:54.513Z,1021.28
2018-05-26T06:15:54.391Z,1021.28
2018-05-26T06:16:54.387Z,1021.27
2018-05-26T06:17:54.748Z,1021.26
2018-05-26T06:18:54.405Z,1021.28
2018-05-26T06:19:54.365Z,1021.29
2018-05-26T06:20:54.375Z,1021.29
2018-05-26T06:21:54.399Z,1021.31
2018-05-26T06:22:54.341Z,1021.28
2018-05-26T06:23:54.370Z,1021.32
2018-05-26T06:24:54.368Z,1021.28
2018-05-26T06:25:54.376Z,1021.3
2018-05-26T06:26:54.338Z,1021.27
2018-05-26T06:27:54.349Z,1021.31
2018-05-26T06:28:54.355Z,1021.28
2018-05-26T06:29:54.365Z,1021.28
2018-05-26T06:30:54.361Z,1021.31
2018-05-26T06:31:54.374Z,1021.3
2018-05-26T06:32:54.339Z,1021.27
2018-05-26T06:33:54.352Z,1021.27
2018-05-26T06:34:54.448Z,1021.29
2018-05-26T06:35:54.405Z,1021.28
2018-05-26T06:36:54.338Z,1021.26
2018-05-26T06:37:54.415Z,1021.29
2018-05-26T06:38:54.342Z,1021.29
2018-05-26T06:39:54.385Z,1021.28
2018-05-26T06:40:54.409Z,1021.31
2018-05-26T06:41:54.401Z,1021.3
2018-05-26T06:42:54.346Z,1021.29
2018-05-26T06:43:54.330Z,1021.3
2018-05-26T06:44:54.345Z,1021.29
2018-05-26T06:45:54.354Z,1021.31
2018-05-26T06:46:54.545Z,1021.28
2018-05-26T06:47:54.357Z,1021.32
2018-05-26T06:48:54.684Z,1021.27
2018-05-26T06:49:54.347Z,1021.3
2018-05-26T06:50:54.482Z,1021.29
2018-05-26T06:51:54.369Z,1021.31
2018-05-26T06:52:54.362Z,1021.31
2018-05-26T06:53:54.453Z,1021.27
2018-05-26T06:54:54.334Z,1021.3
2018-05-26T06:55:54.667Z,1021.3
2018-05-26T06:56:54.336Z,1021.27
2018-05-26T06:57:54.352Z,1021.29
2018-05-26T06:58:54.376Z,1021.27
2018-05-26T06:59:54.320Z,1021.27
2018-05-26T07:00:54.585Z,1021.24
2018-05-26T07:01:54.329Z,1021.25
2018-05-26T07:02:54.350Z,1021.25
2018-05-26T07:03:54.336Z,1021.23
2018-05-26T07:04:54.497Z,1021.24
2018-05-26T07:05:54.619Z,1021.23
2018-05-26T07:06:54.359Z,1021.2
2018-05-26T07:07:54.336Z,1021.19
2018-05-26T07:08:55.186Z,1021.23
2018-05-26T07:09:54.323Z,1021.2
2018-05-26T07:10:54.313Z,1021.19
2018-05-26T07:11:54.319Z,1021.2
2018-05-26T07:12:54.372Z,1021.22
2018-05-26T07:13:54.353Z,1021.21
2018-05-26T07:14:54.322Z,1021.24
2018-05-26T07:15:54.377Z,1021.17
2018-05-26T07:16:54.338Z,1021.19
2018-05-26T07:17:54.331Z,1021.14
2018-05-26T07:18:54.329Z,1021.17
2018-05-26T07:19:54.323Z,1021.15
2018-05-26T07:20:54.329Z,1021.12
2018-05-26T07:21:54.345Z,1021.09
2018-05-26T07:22:54.604Z,1021.11
2018-05-26T07:23:54.357Z,1021.15
2018-05-26T07:24:54.410Z,1021.16
2018-05-26T07:25:54.342Z,1021.14
2018-05-26T07:26:54.353Z,1021.14
2018-05-26T07:27:54.411Z,1021.15
2018-05-26T07:28:54.329Z,1021.14
2018-05-26T07:29:54.360Z,1021.13
2018-05-26T07:30:54.360Z,1021.15
2018-05-26T07:31:54.310Z,1021.16
2018-05-26T07:32:54.302Z,1021.11
2018-05-26T07:33:54.300Z,1021.11
2018-05-26T07:34:54.398Z,1021.1
2018-05-26T07:35:55.018Z,1021.1
2018-05-26T07:36:54.307Z,1021.15
2018-05-26T07:37:54.316Z,1021.14
2018-05-26T07:38:54.376Z,1021.16
2018-05-26T07:39:54.342Z,1021.17
2018-05-26T07:40:54.398Z,1021.2
2018-05-26T07:41:54.303Z,1021.19
2018-05-26T07:42:54.465Z,1021.23
2018-05-26T07:43:54.337Z,1021.17
2018-05-26T07:44:54.324Z,1021.2
2018-05-26T07:45:55.293Z,1021.25
2018-05-26T07:46:54.360Z,1021.2
2018-05-26T07:47:54.345Z,1021.26
2018-05-26T07:48:54.334Z,1021.25
2018-05-26T07:49:54.316Z,1021.27
2018-05-26T07:50:54.673Z,1021.24
2018-05-26T07:51:54.320Z,1021.28
2018-05-26T07:52:54.316Z,1021.3
2018-05-26T07:53:54.875Z,1021.29
2018-05-26T07:54:54.359Z,1021.32
2018-05-26T07:55:54.305Z,1021.3
2018-05-26T07:56:54.307Z,1021.31
2018-05-26T07:57:54.846Z,1021.35
2018-05-26T07:58:54.356Z,1021.36
2018-05-26T07:59:54.410Z,1021.37
2018-05-26T08:00:54.384Z,1021.36
2018-05-26T08:01:55.378Z,1021.33
2018-05-26T08:02:54.347Z,1021.37
2018-05-26T08:03:54.324Z,1021.34
2018-05-26T08:04:54.323Z,1021.45
2018-05-26T08:05:54.317Z,1021.47
2018-05-26T08:06:54.327Z,1021.37
2018-05-26T08:07:54.322Z,1021.48
2018-05-26T08:08:54.354Z,1021.42
2018-05-26T08:09:54.295Z,1021.49
2018-05-26T08:10:54.483Z,1021.41
2018-05-26T08:11:54.326Z,1021.44
2018-05-26T08:12:54.308Z,1021.49
2018-05-26T08:13:54.351Z,1021.43
2018-05-26T08:14:54.334Z,1021.54
2018-05-26T08:15:54.294Z,1021.5
2018-05-26T08:16:54.452Z,1021.55
2018-05-26T08:17:54.307Z,1021.51
2018-05-26T08:18:54.359Z,1021.51
2018-05-26T08:19:54.321Z,1021.52
2018-05-26T08:20:54.325Z,1021.54
2018-05-26T08:21:54.333Z,1021.58
2018-05-26T08:22:54.345Z,1021.56
2018-05-26T08:23:54.290Z,1021.55
2018-05-26T08:24:54.323Z,1021.52
2018-05-26T08:25:54.483Z,1021.5
2018-05-26T08:26:54.318Z,1021.53
2018-05-26T08:27:54.293Z,1021.55
2018-05-26T08:28:54.378Z,1021.51
2018-05-26T08:29:54.465Z,1021.53
2018-05-26T08:30:54.460Z,1021.56
2018-05-26T08:31:54.278Z,1021.58
2018-05-26T08:32:54.295Z,1021.57
2018-05-26T08:33:54.634Z,1021.55
2018-05-26T08:34:54.295Z,1021.58
2018-05-26T08:35:54.339Z,1021.59
2018-05-26T08:36:54.299Z,1021.57
2018-05-26T08:37:54.331Z,1021.52
2018-05-26T08:38:54.785Z,1021.56
2018-05-26T08:39:54.839Z,1021.59
2018-05-26T08:40:54.309Z,1021.61
2018-05-26T08:41:54.303Z,1021.63
2018-05-26T08:42:54.324Z,1021.62
2018-05-26T08:43:54.816Z,1021.59
2018-05-26T08:44:54.328Z,1021.58
2018-05-26T08:45:54.346Z,1021.54
2018-05-26T08:46:54.282Z,1021.51
2018-05-26T08:47:54.328Z,1021.48
2018-05-26T08:48:54.306Z,1021.51
2018-05-26T08:49:54.301Z,1021.45
2018-05-26T08:50:54.316Z,1021.42
2018-05-26T08:51:54.296Z,1021.47
2018-05-26T08:52:54.293Z,1021.43
2018-05-26T08:53:54.327Z,1021.42
2018-05-26T08:54:55.968Z,1021.39
2018-05-26T08:55:54.300Z,1021.35
2018-05-26T08:56:54.317Z,1021.35
2018-05-26T08:57:54.291Z,1021.37
2018-05-26T08:58:54.387Z,1021.34
2018-05-26T08:59:54.466Z,1021.33
2018-05-26T09:00:54.318Z,1021.29
2018-05-26T09:01:54.309Z,1021.31
2018-05-26T09:02:54.279Z,1021.28
2018-05-26T09:03:56.510Z,1021.33
2018-05-26T09:04:54.324Z,1021.32
2018-05-26T09:05:54.278Z,1021.32
2018-05-26T09:06:54.295Z,1021.36
2018-05-26T09:07:54.299Z,1021.39
2018-05-26T09:08:54.289Z,1021.34
2018-05-26T09:09:54.308Z,1021.3
2018-05-26T09:10:54.406Z,1021.37
2018-05-26T09:11:55.706Z,1021.33
2018-05-26T09:12:54.339Z,1021.32
2018-05-26T09:13:54.290Z,1021.26
2018-05-26T09:14:54.386Z,1021.26
2018-05-26T09:15:54.686Z,1021.3
2018-05-26T09:16:54.311Z,1021.27
2018-05-26T09:17:55.807Z,1021.28
2018-05-26T09:18:54.316Z,1021.29
2018-05-26T09:19:54.312Z,1021.3
2018-05-26T09:20:54.334Z,1021.28
2018-05-26T09:21:54.389Z,1021.29
2018-05-26T09:22:54.298Z,1021.27
2018-05-26T09:23:54.306Z,1021.24
2018-05-26T09:24:54.264Z,1021.26
2018-05-26T09:25:54.264Z,1021.27
2018-05-26T09:26:54.278Z,1021.25
2018-05-26T09:27:54.296Z,1021.28
2018-05-26T09:28:54.297Z,1021.3
2018-05-26T09:29:54.289Z,1021.28
2018-05-26T09:30:54.298Z,1021.28
2018-05-26T09:31:54.283Z,1021.3
2018-05-26T09:32:54.254Z,1021.29
2018-05-26T09:33:54.317Z,1021.26
2018-05-26T09:34:54.313Z,1021.31
2018-05-26T09:35:54.293Z,1021.27
2018-05-26T09:36:55.064Z,1021.26
2018-05-26T09:37:54.332Z,1021.32
2018-05-26T09:38:54.384Z,1021.33
2018-05-26T09:39:54.262Z,1021.34
2018-05-26T09:40:54.479Z,1021.26
2018-05-26T09:41:54.464Z,1021.29
2018-05-26T09:42:54.307Z,1021.27
2018-05-26T09:43:54.298Z,1021.27
2018-05-26T09:44:54.292Z,1021.31
2018-05-26T09:45:54.305Z,1021.31
2018-05-26T09:46:54.374Z,1021.26
2018-05-26T09:47:54.373Z,1021.34
2018-05-26T09:48:54.344Z,1021.26
2018-05-26T09:49:54.293Z,1021.2
2018-05-26T09:50:54.301Z,1021.22
2018-05-26T09:51:54.306Z,1021.21
2018-05-26T09:52:54.323Z,1021.22
2018-05-26T09:53:55.412Z,1021.21
2018-05-26T09:54:55.230Z,1021.24
2018-05-26T09:55:55.088Z,1021.2
2018-05-26T09:56:55.093Z,1021.14
2018-05-26T09:57:55.950Z,1021.23
2018-05-26T09:58:55.743Z,1021.28
2018-05-26T09:59:54.279Z,1021.29
2018-05-26T10:00:54.319Z,1021.27
2018-05-26T10:01:54.344Z,1021.28
2018-05-26T10:02:56.008Z,1021.28
2018-05-26T10:03:55.919Z,1021.28
2018-05-26T10:04:54.394Z,1021.25
2018-05-26T10:05:54.335Z,1021.22
2018-05-26T10:06:55.549Z,1021.24
2018-05-26T10:07:54.353Z,1021.2
2018-05-26T10:08:55.647Z,1021.19
2018-05-26T10:09:54.385Z,1021.21
2018-05-26T10:10:54.418Z,1021.19
2018-05-26T10:11:54.852Z,1021.18
2018-05-26T10:12:54.333Z,1021.17
2018-05-26T10:13:55.115Z,1021.13
2018-05-26T10:14:54.329Z,1021.17
2018-05-26T10:15:54.342Z,1021.18
2018-05-26T10:16:55.800Z,1021.21
2018-05-26T10:17:54.371Z,1021.2
2018-05-26T10:18:54.773Z,1021.23
2018-05-26T10:19:55.174Z,1021.2
2018-05-26T10:20:55.807Z,1021.19
2018-05-26T10:21:54.392Z,1021.17
2018-05-26T10:22:54.399Z,1021.2
2018-05-26T10:23:54.321Z,1021.19
2018-05-26T10:24:54.424Z,1021.18
2018-05-26T10:25:55.832Z,1021.13
2018-05-26T10:26:54.426Z,1021.12
2018-05-26T10:27:54.316Z,1021.14
2018-05-26T10:28:54.331Z,1021.17
2018-05-26T10:29:55.142Z,1021.18
2018-05-26T10:30:55.960Z,1021.22
2018-05-26T10:31:54.386Z,1021.17
2018-05-26T10:32:54.352Z,1021.12
2018-05-26T10:33:55.590Z,1021.17
2018-05-26T10:34:55.721Z,1021.16
2018-05-26T10:35:54.377Z,1021.16
2018-05-26T10:36:54.369Z,1021.12
2018-05-26T10:37:55.542Z,1021.14
2018-05-26T10:38:54.251Z,1021.11
2018-05-26T10:39:54.405Z,1021.12
2018-05-26T10:40:54.301Z,1021.11
2018-05-26T10:41:54.319Z,1021.18
2018-05-26T10:42:54.233Z,1021.1
2018-05-26T10:43:55.271Z,1021.11
2018-05-26T10:44:55.110Z,1021.14
2018-05-26T10:45:54.238Z,1021.22
2018-05-26T10:46:54.329Z,1021.11
2018-05-26T10:47:54.258Z,1021.15
2018-05-26T10:48:54.327Z,1021.19
2018-05-26T10:49:54.528Z,1021.18
2018-05-26T10:50:54.435Z,1021.18
2018-05-26T10:51:54.241Z,1021.17
2018-05-26T10:52:54.404Z,1021.15
2018-05-26T10:53:54.314Z,1021.21
2018-05-26T10:54:54.376Z,1021.13
2018-05-26T10:55:54.552Z,1021.18
2018-05-26T10:56:54.316Z,1021.19
2018-05-26T10:57:54.325Z,1021.19
2018-05-26T10:58:54.265Z,1021.16
2018-05-26T10:59:54.352Z,1021.16
2018-05-26T11:00:54.244Z,1021.22
2018-05-26T11:01:54.346Z,1021.21
2018-05-26T11:02:54.266Z,1021.24
2018-05-26T11:03:54.332Z,1021.21
2018-05-26T11:04:54.477Z,1021.21
2018-05-26T11:05:54.268Z,1021.22
2018-05-26T11:06:54.666Z,1021.21
2018-05-26T11:07:54.265Z,1021.19
2018-05-26T11:08:54.398Z,1021.19
2018-05-26T11:09:54.246Z,1021.22
2018-05-26T11:10:54.408Z,1021.19
2018-05-26T11:11:54.359Z,1021.2
2018-05-26T11:12:54.384Z,1021.2
2018-05-26T11:13:54.449Z,1021.21
2018-05-26T11:14:54.916Z,1021.18
2018-05-26T11:15:54.270Z,1021.2
2018-05-26T11:16:55.370Z,1021.21
2018-05-26T11:17:55.044Z,1021.19
2018-05-26T11:18:54.535Z,1021.17
2018-05-26T11:19:54.472Z,1021.15
2018-05-26T11:20:54.293Z,1021.13
2018-05-26T11:21:54.244Z,1021.16
2018-05-26T11:22:54.435Z,1021.13
2018-05-26T11:23:54.252Z,1021.13
2018-05-26T11:24:54.460Z,1021.12
2018-05-26T11:25:54.278Z,1021.09
2018-05-26T11:26:54.612Z,1021.15
2018-05-26T11:27:54.322Z,1021.15
2018-05-26T11:28:54.471Z,1021.14
2018-05-26T11:29:54.409Z,1021.11
2018-05-26T11:30:54.324Z,1021.14
2018-05-26T11:31:54.470Z,1021.12
2018-05-26T11:32:54.300Z,1021.11
2018-05-26T11:33:54.235Z,1021.11
2018-05-26T11:34:54.372Z,1021.12
2018-05-26T11:35:54.233Z,1021.16
2018-05-26T11:36:54.242Z,1021.13
2018-05-26T11:37:54.384Z,1021.09
2018-05-26T11:38:54.222Z,1021.09
2018-05-26T11:39:54.212Z,1021.1
2018-05-26T11:40:54.358Z,1021.11
2018-05-26T11:41:54.381Z,1021.03
2018-05-26T11:42:54.243Z,1021.07
2018-05-26T11:43:54.255Z,1021.03
2018-05-26T11:44:54.263Z,1020.99
2018-05-26T11:45:54.243Z,1020.99
2018-05-26T11:46:54.346Z,1020.98
2018-05-26T11:47:54.362Z,1020.99
2018-05-26T11:48:54.255Z,1021
2018-05-26T11:49:54.361Z,1021.04
2018-05-26T11:50:54.229Z,1021.01
2018-05-26T11:51:54.235Z,1021.04
2018-05-26T11:52:54.390Z,1020.97
2018-05-26T11:53:54.264Z,1020.96
2018-05-26T11:54:54.234Z,1021.01
2018-05-26T11:55:54.302Z,1020.99
2018-05-26T11:56:54.225Z,1021
2018-05-26T11:57:54.234Z,1020.97
2018-05-26T11:58:54.326Z,1021
2018-05-26T11:59:54.241Z,1020.99
2018-05-26T12:00:54.238Z,1020.97
2018-05-26T12:01:54.422Z,1021.02
2018-05-26T12:02:54.454Z,1020.97
2018-05-26T12:03:54.225Z,1020.94
2018-05-26T12:04:54.369Z,1020.97
2018-05-26T12:05:54.231Z,1020.96
2018-05-26T12:06:54.415Z,1020.94
2018-05-26T12:07:54.280Z,1020.94
2018-05-26T12:08:54.241Z,1020.97